Time;durP1;ratioP1;P1;durP2;ratioP2;P2;SDS_P1;SDS_P2;PMS_P1;PMS_P2;Temp;Humidity;BMP_temperature;BMP_pressure;BME280_temperature;BME280_humidity;BME280_pressure;Samples;Min_cycle;Max_cycle;Signal;HPM_P1;HPM_P2
2022/03/19 00:01:55;;;;;;;3.00;2.58;;;6.70;99.90;;;;;;5064632;28;20201;-69
2022/03/19 00:04:22;;;;;;;3.75;2.38;;;6.70;99.90;;;;;;5065635;28;20212;-70
2022/03/19 00:06:49;;;;;;;2.15;2.03;;;6.60;99.90;;;;;;5056466;28;20217;-71
2022/03/19 00:09:15;;;;;;;3.58;2.65;;;6.60;99.90;;;;;;5059801;28;20274;-69
2022/03/19 00:11:43;;;;;;;4.30;2.63;;;6.50;99.90;;;;;;5059175;28;20270;-71
2022/03/19 00:14:12;;;;;;;4.22;2.58;;;6.50;99.90;;;;;;5063779;28;20201;-69
2022/03/19 00:16:39;;;;;;;3.80;2.85;;;6.50;99.90;;;;;;5063357;28;20319;-69
2022/03/19 00:19:08;;;;;;;7.70;2.58;;;6.40;99.90;;;;;;5062502;28;20215;-71
2022/03/19 00:21:35;;;;;;;3.83;2.67;;;6.40;99.90;;;;;;5061952;28;20284;-70
2022/03/19 00:24:04;;;;;;;2.83;2.60;;;6.40;99.90;;;;;;5062956;28;20889;-69
2022/03/19 00:26:31;;;;;;;2.42;2.17;;;6.30;99.90;;;;;;5062461;28;20743;-72
2022/03/19 00:28:57;;;;;;;4.05;2.80;;;6.30;99.90;;;;;;5068154;28;20201;-69
2022/03/19 00:31:24;;;;;;;3.75;3.33;;;6.30;99.90;;;;;;5064896;28;20639;-69
2022/03/19 00:33:51;;;;;;;3.83;2.58;;;6.40;99.90;;;;;;5056126;28;20219;-69
2022/03/19 00:36:19;;;;;;;5.47;2.80;;;6.40;99.90;;;;;;5060057;28;20830;-69
2022/03/19 00:38:45;;;;;;;2.55;2.35;;;6.30;99.90;;;;;;5063391;28;20203;-72
2022/03/19 00:41:13;;;;;;;8.52;2.55;;;6.40;99.90;;;;;;5063598;28;20207;-69
2022/03/19 00:43:41;;;;;;;3.28;2.72;;;6.40;99.90;;;;;;5063887;28;20211;-69
2022/03/19 00:46:07;;;;;;;5.15;2.35;;;6.40;99.90;;;;;;5059236;28;20294;-70
2022/03/19 00:48:34;;;;;;;3.53;2.67;;;6.40;99.90;;;;;;5058441;28;20207;-71
2022/03/19 00:51:01;;;;;;;2.60;1.95;;;6.40;99.90;;;;;;5059585;28;20216;-69
2022/03/19 00:53:29;;;;;;;3.10;2.80;;;6.40;99.90;;;;;;5061193;28;20205;-69
2022/03/19 00:55:55;;;;;;;3.92;3.20;;;6.40;99.90;;;;;;5060389;28;20596;-69
2022/03/19 00:58:22;;;;;;;5.25;2.70;;;6.40;99.90;;;;;;5054830;28;20205;-70
2022/03/19 01:00:49;;;;;;;2.92;2.13;;;6.30;99.90;;;;;;5058917;28;20215;-70
2022/03/19 01:03:16;;;;;;;2.90;2.30;;;6.30;99.90;;;;;;5062984;28;20318;-71
2022/03/19 01:05:43;;;;;;;2.40;2.20;;;6.30;99.90;;;;;;5053696;28;20216;-70
2022/03/19 01:08:11;;;;;;;4.50;3.13;;;6.30;99.90;;;;;;5058627;28;20580;-70
2022/03/19 01:10:40;;;;;;;4.63;2.78;;;6.30;99.90;;;;;;5061315;28;20206;-70
2022/03/19 01:13:07;;;;;;;2.40;2.15;;;6.30;99.90;;;;;;5062627;28;20204;-71
2022/03/19 01:15:34;;;;;;;3.30;2.95;;;6.40;99.90;;;;;;5063424;28;21426;-70
2022/03/19 01:18:02;;;;;;;3.72;2.50;;;6.40;99.90;;;;;;5066070;28;20275;-70
2022/03/19 01:20:29;;;;;;;5.00;2.45;;;6.40;99.90;;;;;;5066260;28;20227;-69
2022/03/19 01:22:56;;;;;;;2.30;2.10;;;6.50;99.90;;;;;;5070766;28;20199;-72
2022/03/19 01:25:23;;;;;;;7.50;2.85;;;6.50;99.90;;;;;;5062134;28;20197;-70
2022/03/19 01:27:51;;;;;;;3.13;2.83;;;6.40;99.90;;;;;;5064588;28;20224;-70
2022/03/19 01:30:20;;;;;;;3.97;2.38;;;6.40;99.90;;;;;;5066954;28;20215;-72
2022/03/19 01:32:47;;;;;;;5.55;2.33;;;6.40;99.90;;;;;;5062428;28;20197;-70
2022/03/19 01:35:16;;;;;;;3.25;2.95;;;6.40;99.90;;;;;;5058127;28;20273;-72
2022/03/19 01:37:43;;;;;;;3.60;2.70;;;6.30;99.90;;;;;;5058334;28;20267;-71
2022/03/19 01:40:12;;;;;;;3.78;2.38;;;6.20;99.90;;;;;;5067458;28;20325;-70
2022/03/19 01:42:42;;;;;;;5.50;3.00;;;6.20;99.90;;;;;;5065228;28;20690;-70
2022/03/19 01:45:12;;;;;;;2.80;1.98;;;6.20;99.90;;;;;;5068030;28;20203;-71
2022/03/19 01:47:39;;;;;;;3.28;2.20;;;6.10;99.90;;;;;;5068144;28;20227;-71
2022/03/19 01:50:07;;;;;;;3.25;2.95;;;6.00;99.90;;;;;;5065681;28;20272;-71
2022/03/19 01:52:33;;;;;;;2.80;2.60;;;6.00;99.90;;;;;;5067311;28;20204;-71
2022/03/19 01:55:01;;;;;;;1.80;1.70;;;6.00;99.90;;;;;;5058239;28;20351;-71
2022/03/19 01:57:30;;;;;;;4.75;3.00;;;6.00;99.90;;;;;;5055632;28;20312;-71
2022/03/19 01:59:58;;;;;;;5.00;2.38;;;5.90;99.90;;;;;;5064912;28;20276;-71
2022/03/19 02:02:27;;;;;;;10.95;2.95;;;5.90;99.90;;;;;;5065734;28;20649;-71
2022/03/19 02:04:54;;;;;;;2.50;2.30;;;5.90;99.90;;;;;;5067331;28;20208;-71
2022/03/19 02:07:21;;;;;;;3.65;3.00;;;6.00;99.90;;;;;;5065332;28;20279;-71
2022/03/19 02:09:48;;;;;;;2.50;2.30;;;6.10;99.90;;;;;;5065788;28;20267;-71
2022/03/19 02:12:15;;;;;;;3.40;2.83;;;6.10;99.90;;;;;;5062533;28;20197;-71
2022/03/19 02:14:42;;;;;;;4.75;3.05;;;6.10;99.90;;;;;;5061425;28;20264;-71
2022/03/19 02:17:10;;;;;;;2.25;2.05;;;6.10;99.90;;;;;;5063761;28;20285;-71
2022/03/19 02:19:49;;;;;;;2.90;2.47;;;6.10;99.90;;;;;;5062460;28;20217;-71
2022/03/19 02:22:16;;;;;;;2.80;2.58;;;6.10;99.90;;;;;;5061976;28;20246;-71
2022/03/19 02:27:29;;;;;;;4.50;2.80;;;6.10;99.90;;;;;;5062807;28;20294;-71
2022/03/19 02:29:56;;;;;;;5.63;2.53;;;6.00;99.90;;;;;;5062787;28;20200;-71
2022/03/19 02:32:24;;;;;;;2.85;2.25;;;6.00;99.90;;;;;;5064464;28;20270;-71
2022/03/19 02:34:50;;;;;;;3.05;2.50;;;6.00;99.90;;;;;;5072385;28;20271;-71
2022/03/19 02:37:17;;;;;;;2.03;1.92;;;6.00;99.90;;;;;;5077375;28;20225;-70
2022/03/19 02:39:45;;;;;;;4.97;3.15;;;6.00;99.90;;;;;;5074426;28;20218;-71
2022/03/19 02:42:17;;;;;;;3.58;3.22;;;5.90;99.90;;;;;;5069198;28;20202;-71
2022/03/19 02:44:45;;;;;;;3.20;2.65;;;5.90;99.90;;;;;;5063248;28;20199;-71
2022/03/19 02:47:12;;;;;;;1.80;1.70;;;5.90;99.90;;;;;;5065230;28;20251;-71
2022/03/19 02:49:38;;;;;;;5.85;3.08;;;5.80;99.90;;;;;;5057037;28;20201;-71
2022/03/19 02:52:06;;;;;;;2.17;1.98;;;5.80;99.90;;;;;;5064558;28;20301;-71
2022/03/19 02:54:33;;;;;;;2.42;2.20;;;5.80;99.90;;;;;;5064605;28;20278;-71
2022/03/19 02:57:02;;;;;;;1.77;1.48;;;5.80;99.90;;;;;;5063156;28;20929;-71
2022/03/19 02:59:30;;;;;;;2.00;1.90;;;5.70;99.90;;;;;;5065328;28;20629;-71
2022/03/19 03:01:59;;;;;;;2.17;1.75;;;5.70;99.90;;;;;;5062344;28;20200;-71
2022/03/19 03:04:27;;;;;;;3.13;2.10;;;5.70;99.90;;;;;;5064623;28;20209;-71
2022/03/19 03:06:56;;;;;;;4.20;2.20;;;5.70;99.90;;;;;;5062496;28;20223;-71
2022/03/19 03:09:24;;;;;;;6.15;3.03;;;5.70;99.90;;;;;;5054754;28;20211;-71
2022/03/19 03:11:52;;;;;;;5.22;1.60;;;5.70;99.90;;;;;;5064341;28;20214;-72
2022/03/19 03:14:21;;;;;;;2.35;1.67;;;5.70;99.90;;;;;;5060941;28;20734;-72
2022/03/19 03:16:48;;;;;;;3.25;1.55;;;5.70;99.90;;;;;;5064971;28;20269;-70
2022/03/19 03:19:16;;;;;;;8.00;2.20;;;5.70;99.90;;;;;;5064044;28;20227;-72
2022/03/19 03:21:43;;;;;;;6.85;2.28;;;5.60;99.90;;;;;;5065338;28;20245;-72
2022/03/19 03:24:10;;;;;;;4.90;2.35;;;5.50;99.90;;;;;;5064861;28;20734;-72
2022/03/19 03:26:37;;;;;;;2.25;1.90;;;5.50;99.90;;;;;;5063296;28;20308;-70
2022/03/19 03:29:04;;;;;;;1.88;1.77;;;5.40;99.90;;;;;;5058669;28;20218;-70
2022/03/19 03:31:33;;;;;;;3.13;2.17;;;5.50;99.90;;;;;;5067198;28;20213;-73
2022/03/19 03:34:01;;;;;;;2.90;2.00;;;5.50;99.90;;;;;;5068929;28;20198;-70
2022/03/19 03:36:28;;;;;;;3.45;2.25;;;5.50;99.90;;;;;;5063535;28;20377;-71
2022/03/19 03:38:54;;;;;;;2.15;1.70;;;5.40;99.90;;;;;;5063321;28;20255;-72
2022/03/19 03:41:21;;;;;;;2.88;1.88;;;5.40;99.90;;;;;;5063278;28;20712;-71
2022/03/19 03:43:48;;;;;;;2.30;2.05;;;5.30;99.90;;;;;;5068107;28;20210;-71
2022/03/19 03:46:15;;;;;;;2.97;2.67;;;5.30;99.90;;;;;;5060957;28;20228;-72
2022/03/19 03:48:43;;;;;;;4.57;2.28;;;5.30;99.90;;;;;;5066850;28;20252;-72
2022/03/19 03:51:12;;;;;;;2.85;2.25;;;5.20;99.90;;;;;;5073894;28;20195;-70
2022/03/19 03:53:39;;;;;;;3.05;1.85;;;5.20;99.90;;;;;;5069805;28;20204;-72
2022/03/19 03:56:08;;;;;;;5.40;2.83;;;5.20;99.90;;;;;;5063766;28;20228;-72
2022/03/19 03:58:35;;;;;;;2.20;2.00;;;5.20;99.90;;;;;;5064195;28;20640;-71
2022/03/19 04:01:01;;;;;;;2.47;2.00;;;5.30;99.90;;;;;;5062530;28;20651;-73
2022/03/19 04:03:28;;;;;;;2.33;2.13;;;5.30;99.90;;;;;;5059446;28;20890;-71
2022/03/19 04:05:56;;;;;;;2.35;2.13;;;5.30;99.90;;;;;;5058489;28;20736;-72
2022/03/19 04:08:23;;;;;;;3.13;1.95;;;5.20;99.90;;;;;;5064718;28;20225;-72
2022/03/19 04:10:49;;;;;;;3.75;1.80;;;5.20;99.90;;;;;;5060344;28;20270;-73
2022/03/19 04:13:16;;;;;;;2.28;1.80;;;5.10;99.90;;;;;;5060333;28;20276;-71
2022/03/19 04:15:43;;;;;;;2.70;1.80;;;5.10;99.90;;;;;;5063985;28;20220;-73
2022/03/19 04:18:26;;;;;;;6.35;1.70;;;5.20;99.90;;;;;;5067780;28;20249;-72
2022/03/19 04:20:53;;;;;;;2.67;2.05;;;5.20;99.90;;;;;;5079514;28;20223;-72
2022/03/19 04:23:21;;;;;;;2.75;1.50;;;5.10;99.90;;;;;;5074140;28;20214;-71
2022/03/19 04:25:47;;;;;;;2.65;2.28;;;5.10;99.90;;;;;;5078854;28;20267;-72
2022/03/19 04:28:14;;;;;;;4.03;2.40;;;5.00;99.90;;;;;;5073096;28;20302;-71
2022/03/19 04:30:41;;;;;;;1.63;1.52;;;5.00;99.90;;;;;;5062993;28;20220;-71
2022/03/19 04:33:08;;;;;;;1.83;1.63;;;5.00;99.90;;;;;;5054431;28;20346;-72
2022/03/19 04:38:23;;;;;;;5.82;1.92;;;5.00;99.90;;;;;;5055970;28;20601;-71
2022/03/19 04:40:52;;;;;;;1.75;1.58;;;4.90;99.90;;;;;;5065270;28;20364;-71
2022/03/19 04:43:19;;;;;;;3.28;2.00;;;4.90;99.90;;;;;;5064915;28;20217;-71
2022/03/19 04:45:47;;;;;;;2.67;2.40;;;4.80;99.90;;;;;;5061100;28;20203;-73
2022/03/19 04:48:13;;;;;;;2.58;1.90;;;4.80;99.90;;;;;;5055702;28;20209;-71
2022/03/19 04:50:42;;;;;;;2.30;1.55;;;4.70;99.90;;;;;;5062408;28;20191;-73
2022/03/19 04:53:10;;;;;;;2.10;1.90;;;4.70;99.90;;;;;;5060642;28;20201;-73
2022/03/19 04:55:40;;;;;;;7.18;2.67;;;4.70;99.90;;;;;;5060727;28;20224;-71
2022/03/19 04:58:07;;;;;;;2.60;1.98;;;4.60;99.90;;;;;;5059152;28;20257;-73
2022/03/19 05:00:34;;;;;;;2.42;1.55;;;4.60;99.90;;;;;;5062197;28;21083;-73
2022/03/19 05:03:01;;;;;;;2.13;1.95;;;4.60;99.90;;;;;;5056347;28;20304;-71
2022/03/19 05:05:27;;;;;;;2.00;1.80;;;4.50;99.90;;;;;;5062078;28;20197;-71
2022/03/19 05:07:55;;;;;;;1.95;1.60;;;4.50;99.90;;;;;;5062996;28;20236;-71
2022/03/19 05:13:09;;;;;;;1.42;1.33;;;4.50;99.90;;;;;;5055888;28;20279;-73
2022/03/19 05:15:36;;;;;;;3.33;2.63;;;4.40;99.90;;;;;;5060779;28;20205;-71
2022/03/19 05:18:03;;;;;;;1.95;1.80;;;4.40;99.90;;;;;;5065156;28;20212;-73
2022/03/19 05:20:31;;;;;;;3.22;1.80;;;4.40;99.90;;;;;;5062981;28;20231;-71
2022/03/19 05:22:57;;;;;;;4.13;2.28;;;4.40;99.90;;;;;;5064877;28;20285;-73
2022/03/19 05:25:24;;;;;;;2.40;2.20;;;4.40;99.90;;;;;;5059158;28;20278;-72
2022/03/19 05:27:50;;;;;;;2.85;2.05;;;4.30;99.90;;;;;;5063177;28;20243;-73
2022/03/19 05:30:18;;;;;;;5.25;2.25;;;4.30;99.90;;;;;;5047114;28;20348;-71
2022/03/19 05:32:45;;;;;;;1.70;1.60;;;4.30;99.90;;;;;;5068355;28;20302;-71
2022/03/19 05:35:12;;;;;;;1.98;1.83;;;4.30;99.90;;;;;;5062650;28;20311;-74
2022/03/19 05:37:40;;;;;;;1.42;1.33;;;4.30;99.90;;;;;;5062943;28;20222;-72
2022/03/19 05:40:08;;;;;;;2.40;2.10;;;4.30;99.90;;;;;;5060859;28;20269;-72
2022/03/19 05:42:36;;;;;;;4.43;2.35;;;4.20;99.90;;;;;;5058948;28;20202;-73
2022/03/19 05:45:02;;;;;;;2.83;2.00;;;4.20;99.90;;;;;;5047060;28;20206;-71
2022/03/19 05:47:31;;;;;;;2.70;2.50;;;4.20;99.90;;;;;;5057649;28;20224;-71
2022/03/19 05:49:57;;;;;;;3.53;1.80;;;4.20;99.90;;;;;;5052999;28;20225;-71
2022/03/19 05:52:24;;;;;;;2.55;1.73;;;4.20;99.90;;;;;;5059017;28;20205;-72
2022/03/19 05:54:51;;;;;;;3.00;2.35;;;4.30;99.90;;;;;;5060647;28;20248;-71
2022/03/19 05:57:18;;;;;;;4.15;3.03;;;4.30;99.90;;;;;;5058993;28;20346;-71
2022/03/19 05:59:45;;;;;;;5.80;3.22;;;4.40;99.90;;;;;;5063389;28;20216;-70
2022/03/19 06:02:12;;;;;;;3.50;2.15;;;4.40;99.90;;;;;;5064131;28;20865;-71
2022/03/19 06:04:40;;;;;;;2.25;1.90;;;4.40;99.90;;;;;;5063710;28;20209;-71
2022/03/19 06:07:06;;;;;;;2.35;2.25;;;4.40;99.90;;;;;;5065089;28;20222;-71
2022/03/19 06:09:33;;;;;;;1.88;1.77;;;4.50;99.90;;;;;;5059765;28;20223;-70
2022/03/19 06:12:00;;;;;;;5.38;1.88;;;4.50;99.90;;;;;;5068162;28;20247;-71
2022/03/19 06:14:27;;;;;;;2.78;1.88;;;4.50;99.90;;;;;;5069944;28;20217;-72
2022/03/19 06:16:53;;;;;;;2.22;1.98;;;4.60;99.90;;;;;;5065793;28;20241;-73
2022/03/19 06:19:20;;;;;;;3.70;2.22;;;4.60;99.90;;;;;;5071228;28;20201;-72
2022/03/19 06:21:48;;;;;;;2.25;2.05;;;4.60;99.90;;;;;;5065798;28;20225;-72
2022/03/19 06:24:15;;;;;;;1.80;1.70;;;4.70;99.90;;;;;;5065824;28;20265;-72
2022/03/19 06:26:42;;;;;;;1.98;1.70;;;4.70;99.90;;;;;;5065196;28;20276;-72
2022/03/19 06:29:08;;;;;;;1.88;1.60;;;4.80;99.90;;;;;;5066166;28;20205;-73
2022/03/19 06:31:35;;;;;;;3.10;2.03;;;4.90;99.90;;;;;;5070093;28;20350;-72
2022/03/19 06:34:02;;;;;;;2.75;2.53;;;4.90;99.90;;;;;;5068802;28;20197;-71
2022/03/19 06:39:14;;;;;;;4.00;2.13;;;5.10;99.90;;;;;;5071512;28;20257;-73
2022/03/19 06:41:41;;;;;;;5.00;1.83;;;5.20;99.90;;;;;;5069135;28;20303;-74
2022/03/19 06:44:08;;;;;;;2.65;2.45;;;5.30;99.90;;;;;;5068443;28;20205;-73
2022/03/19 06:46:34;;;;;;;7.22;1.90;;;5.40;99.90;;;;;;5067869;28;20217;-74
2022/03/19 06:49:01;;;;;;;2.58;2.15;;;5.50;99.90;;;;;;5067029;28;20303;-74
2022/03/19 06:51:28;;;;;;;2.75;2.42;;;5.50;99.90;;;;;;5062526;28;20264;-72
2022/03/19 06:53:55;;;;;;;2.38;2.17;;;5.60;99.90;;;;;;5064501;28;20215;-72
2022/03/19 06:56:23;;;;;;;2.50;1.98;;;5.60;99.90;;;;;;5066583;28;20222;-72
2022/03/19 06:58:49;;;;;;;2.20;2.00;;;5.80;99.90;;;;;;5066883;28;20201;-72
2022/03/19 07:01:16;;;;;;;1.75;1.65;;;5.90;99.90;;;;;;5064538;28;20247;-72
2022/03/19 07:03:44;;;;;;;3.30;1.88;;;6.00;99.90;;;;;;5069039;28;20247;-71
2022/03/19 07:06:11;;;;;;;3.85;2.30;;;6.10;99.90;;;;;;5065522;28;20306;-70
2022/03/19 07:08:38;;;;;;;3.00;1.75;;;6.20;99.90;;;;;;5065332;28;20276;-72
2022/03/19 07:11:04;;;;;;;4.88;2.03;;;6.30;99.90;;;;;;5064116;28;20285;-72
2022/03/19 07:13:33;;;;;;;1.85;1.73;;;6.50;99.90;;;;;;5064865;28;20204;-71
2022/03/19 07:15:59;;;;;;;3.55;2.53;;;6.60;99.90;;;;;;5069740;28;20597;-72
2022/03/19 07:18:26;;;;;;;2.08;1.73;;;6.70;99.90;;;;;;5067083;28;20667;-73
2022/03/19 07:20:53;;;;;;;4.45;2.35;;;6.90;99.90;;;;;;5068762;28;20284;-74
2022/03/19 07:23:20;;;;;;;3.15;1.95;;;7.10;99.90;;;;;;5065116;28;20260;-74
2022/03/19 07:25:46;;;;;;;2.10;1.95;;;7.20;99.90;;;;;;5065494;28;20228;-73
2022/03/19 07:28:15;;;;;;;2.60;2.40;;;7.40;99.90;;;;;;5065168;28;20262;-73
2022/03/19 07:30:43;;;;;;;2.67;2.05;;;7.60;99.90;;;;;;5064964;28;20214;-73
2022/03/19 07:33:11;;;;;;;5.28;2.92;;;7.70;99.90;;;;;;5070925;28;20722;-73
2022/03/19 07:35:38;;;;;;;2.00;1.80;;;7.90;99.90;;;;;;5055048;28;20317;-72
2022/03/19 07:38:06;;;;;;;3.60;2.20;;;8.00;99.90;;;;;;5056659;28;20198;-73
2022/03/19 07:43:19;;;;;;;8.07;2.80;;;8.40;99.90;;;;;;5054564;28;20453;-72
2022/03/19 07:45:47;;;;;;;2.70;2.35;;;8.50;99.90;;;;;;5056434;28;20202;-71
2022/03/19 07:48:14;;;;;;;2.07;1.87;;;8.70;99.90;;;;;;5055597;28;20251;-73
2022/03/19 07:50:40;;;;;;;1.93;1.67;;;8.80;99.90;;;;;;5055811;28;20520;-71
2022/03/19 07:53:08;;;;;;;1.73;1.63;;;9.00;99.90;;;;;;5056533;28;20444;-73
2022/03/19 07:55:35;;;;;;;2.33;2.07;;;9.20;99.90;;;;;;5057597;28;20531;-73
2022/03/19 07:58:02;;;;;;;4.03;2.57;;;9.30;99.90;;;;;;5056040;28;20879;-73
2022/03/19 08:00:28;;;;;;;2.77;2.37;;;9.50;99.90;;;;;;5055907;28;20447;-72
2022/03/19 08:02:56;;;;;;;5.10;1.90;;;9.60;99.90;;;;;;5055698;28;20491;-73
2022/03/19 08:05:23;;;;;;;4.53;2.90;;;9.80;99.90;;;;;;5055817;28;21009;-71
2022/03/19 08:07:51;;;;;;;2.87;2.40;;;10.00;99.90;;;;;;5056080;28;20482;-72
2022/03/19 08:10:19;;;;;;;2.73;2.17;;;10.10;99.90;;;;;;5057009;28;20462;-73
2022/03/19 08:12:46;;;;;;;3.20;2.03;;;10.20;99.90;;;;;;5063594;28;20420;-72
2022/03/19 08:15:13;;;;;;;2.20;2.00;;;10.40;99.90;;;;;;5071257;28;20448;-72
2022/03/19 08:17:42;;;;;;;5.13;2.13;;;10.60;99.90;;;;;;5067905;28;20479;-72
2022/03/19 08:20:11;;;;;;;6.73;2.13;;;10.70;99.90;;;;;;5057359;28;20552;-71
2022/03/19 08:22:39;;;;;;;4.13;2.50;;;10.90;99.90;;;;;;5053627;28;20872;-72
2022/03/19 08:25:07;;;;;;;2.40;2.17;;;11.10;99.90;;;;;;5056273;28;20449;-72
2022/03/19 08:27:33;;;;;;;2.83;2.07;;;11.30;99.90;;;;;;5055892;28;20465;-71
2022/03/19 08:30:02;;;;;;;2.50;2.30;;;11.40;99.90;;;;;;5059733;28;20452;-73
2022/03/19 08:32:29;;;;;;;4.67;2.37;;;11.70;99.90;;;;;;5058182;28;20428;-71
2022/03/19 08:34:56;;;;;;;1.80;1.70;;;11.80;99.90;;;;;;5057866;28;20531;-72
2022/03/19 08:37:24;;;;;;;2.97;1.50;;;12.10;99.90;;;;;;5057324;28;20530;-72
2022/03/19 08:42:35;;;;;;;2.53;2.33;;;12.50;99.90;;;;;;5055188;28;21086;-72
2022/03/19 08:45:03;;;;;;;2.73;1.87;;;12.60;99.90;;;;;;5054374;28;20505;-71
2022/03/19 08:47:30;;;;;;;2.93;2.37;;;12.50;99.90;;;;;;5054794;28;20505;-72
2022/03/19 08:49:57;;;;;;;3.03;1.90;;;12.60;99.90;;;;;;5054664;28;20439;-72
2022/03/19 08:52:26;;;;;;;2.03;1.83;;;12.70;99.90;;;;;;5055784;28;20832;-71
2022/03/19 08:54:52;;;;;;;2.80;1.40;;;12.90;99.90;;;;;;5055665;28;20444;-71
2022/03/19 08:57:20;;;;;;;4.57;2.00;;;13.10;99.90;;;;;;5057223;28;20491;-70
2022/03/19 08:59:46;;;;;;;2.50;2.27;;;13.30;99.90;;;;;;5059183;28;20543;-71
2022/03/19 09:02:13;;;;;;;1.77;1.60;;;13.40;99.90;;;;;;5058276;28;20490;-70
2022/03/19 09:04:40;;;;;;;2.60;2.33;;;13.50;99.90;;;;;;5056476;28;20523;-73
2022/03/19 09:07:06;;;;;;;1.60;1.30;;;13.70;99.90;;;;;;5070801;28;20442;-70
2022/03/19 09:09:35;;;;;;;2.53;1.83;;;13.90;99.90;;;;;;5079118;28;20518;-72
2022/03/19 09:12:02;;;;;;;7.97;2.07;;;14.10;99.90;;;;;;5080211;28;20499;-71
2022/03/19 09:14:28;;;;;;;1.37;1.10;;;14.30;99.90;;;;;;5065901;28;20459;-72
2022/03/19 09:16:55;;;;;;;2.20;2.00;;;14.40;99.90;;;;;;5059673;28;20533;-70
2022/03/19 09:19:23;;;;;;;4.73;1.90;;;14.50;99.90;;;;;;5057490;28;20423;-70
2022/03/19 09:21:49;;;;;;;4.40;2.20;;;14.70;99.90;;;;;;5055346;28;20496;-69
2022/03/19 09:24:16;;;;;;;3.40;1.83;;;14.90;99.90;;;;;;5059010;28;20450;-69
2022/03/19 09:26:44;;;;;;;2.60;1.90;;;15.00;99.90;;;;;;5065046;28;20979;-70
2022/03/19 09:29:14;;;;;;;4.50;2.50;;;15.20;99.90;;;;;;5055529;28;20975;-70
2022/03/19 09:31:41;;;;;;;2.67;1.70;;;15.40;99.90;;;;;;5079007;28;21005;-72
2022/03/19 09:34:08;;;;;;;2.70;1.77;;;15.50;99.90;;;;;;5063771;28;20457;-69
2022/03/19 09:36:35;;;;;;;3.03;2.43;;;15.60;99.90;;;;;;5066745;28;20475;-69
2022/03/19 09:39:02;;;;;;;3.60;2.20;;;15.80;99.90;;;;;;5075531;28;20443;-70
2022/03/19 09:41:28;;;;;;;2.33;1.50;;;15.90;99.90;;;;;;5067724;28;20463;-71
2022/03/19 09:43:58;;;;;;;2.27;1.90;;;15.80;99.90;;;;;;5068009;28;20467;-69
2022/03/19 09:46:26;;;;;;;4.17;2.10;;;15.90;99.90;;;;;;5057975;28;20467;-72
2022/03/19 09:48:53;;;;;;;4.60;2.23;;;16.00;99.90;;;;;;5082142;28;20452;-71
2022/03/19 09:51:21;;;;;;;2.67;1.90;;;16.10;99.90;;;;;;5080791;28;20454;-70
2022/03/19 09:53:48;;;;;;;3.37;2.20;;;16.20;99.90;;;;;;5068458;28;20450;-73
2022/03/19 09:56:16;;;;;;;1.70;1.60;;;16.30;99.90;;;;;;5073215;28;20466;-72
2022/03/19 09:58:43;;;;;;;2.30;1.37;;;16.30;99.90;;;;;;5074309;28;20456;-73
2022/03/19 10:01:10;;;;;;;1.90;1.60;;;16.50;99.90;;;;;;5069879;28;20465;-71
2022/03/19 10:03:40;;;;;;;6.60;2.10;;;16.60;99.90;;;;;;5071081;28;20829;-73
2022/03/19 10:08:57;;;;;;;2.60;1.33;;;16.70;99.80;;;;;;5071852;28;20486;-69
2022/03/19 10:11:28;;;;;;;1.33;1.23;;;16.90;98.90;;;;;;5086131;28;20848;-72
2022/03/19 10:13:54;;;;;;;2.20;1.53;;;17.00;97.80;;;;;;5085321;28;20463;-75
2022/03/19 10:16:24;;;;;;;2.50;1.80;;;17.30;98.20;;;;;;5082297;28;20446;-70
2022/03/19 10:18:56;;;;;;;2.27;1.93;;;17.30;96.60;;;;;;5082223;28;20413;-70
2022/03/19 10:21:22;;;;;;;2.30;1.73;;;17.20;96.30;;;;;;5074299;28;20451;-72
2022/03/19 10:23:49;;;;;;;4.73;2.10;;;17.30;97.20;;;;;;5084169;28;20536;-71
2022/03/19 10:26:27;;;;;;;1.13;1.03;;;17.50;95.70;;;;;;5082236;28;20570;-69
2022/03/19 10:28:58;;;;;;;1.70;1.60;;;17.70;94.60;;;;;;5081453;28;20564;-71
2022/03/19 10:31:37;;;;;;;3.50;1.40;;;17.90;93.10;;;;;;5080374;28;20493;-72
2022/03/19 10:34:06;;;;;;;1.53;1.30;;;17.90;92.80;;;;;;5081493;28;20459;-71
2022/03/19 10:36:34;;;;;;;2.10;1.60;;;18.00;90.50;;;;;;5075396;28;20542;-72
2022/03/19 10:39:06;;;;;;;1.37;1.23;;;17.90;88.90;;;;;;5070895;28;20527;-69
2022/03/19 10:41:35;;;;;;;1.07;0.83;;;18.00;88.90;;;;;;5074697;28;20553;-73
2022/03/19 10:44:12;;;;;;;1.63;1.13;;;18.10;88.90;;;;;;5074788;28;20483;-73
2022/03/19 10:46:43;;;;;;;2.53;1.83;;;17.80;83.30;;;;;;5076305;28;20550;-70
2022/03/19 10:49:14;;;;;;;1.53;1.40;;;17.60;81.60;;;;;;5084016;28;20450;-71
2022/03/19 10:51:44;;;;;;;2.80;1.53;;;17.60;83.40;;;;;;5077788;28;20455;-70
2022/03/19 10:54:14;;;;;;;2.50;1.17;;;17.80;85.80;;;;;;5075518;28;20426;-69
2022/03/19 10:56:41;;;;;;;0.90;0.90;;;18.10;84.50;;;;;;5080363;28;20455;-71
2022/03/19 10:59:07;;;;;;;1.00;0.90;;;18.30;79.00;;;;;;5075651;28;20463;-70
2022/03/19 11:01:36;;;;;;;3.00;1.20;;;18.30;73.20;;;;;;5073412;28;20976;-72
2022/03/19 11:04:05;;;;;;;1.40;0.90;;;18.30;72.70;;;;;;5076110;28;20514;-70
2022/03/19 11:06:35;;;;;;;3.90;1.27;;;18.40;72.70;;;;;;5077500;28;20441;-70
2022/03/19 11:09:05;;;;;;;2.40;1.20;;;18.50;74.10;;;;;;5072934;28;20554;-70
2022/03/19 11:11:38;;;;;;;1.67;1.10;;;18.70;69.70;;;;;;5076839;28;20475;-70
2022/03/19 11:14:08;;;;;;;2.73;1.17;;;18.70;65.50;;;;;;5069521;28;20504;-70
2022/03/19 11:16:37;;;;;;;2.57;1.33;;;18.80;65.90;;;;;;5066638;28;20528;-71
2022/03/19 11:19:05;;;;;;;2.60;1.07;;;19.00;66.70;;;;;;5066652;28;20455;-71
2022/03/19 11:21:33;;;;;;;2.20;1.10;;;19.20;67.20;;;;;;5069125;28;20418;-70
2022/03/19 11:24:08;;;;;;;1.20;1.00;;;19.30;65.30;;;;;;5066842;28;20569;-70
2022/03/19 11:26:36;;;;;;;1.23;0.93;;;19.50;62.60;;;;;;5064797;28;20490;-70
2022/03/19 11:29:03;;;;;;;4.67;2.90;;;19.80;63.50;;;;;;5067480;28;20434;-72
2022/03/19 11:31:31;;;;;;;2.87;2.03;;;20.10;61.90;;;;;;5067097;28;20477;-71
2022/03/19 11:34:01;;;;;;;2.70;2.00;;;20.30;58.40;;;;;;5066308;28;20504;-69
2022/03/19 11:36:29;;;;;;;2.13;1.53;;;20.80;59.10;;;;;;5063247;28;20521;-70
2022/03/19 11:38:56;;;;;;;1.43;0.73;;;21.20;57.90;;;;;;5075316;28;20895;-70
2022/03/19 11:41:25;;;;;;;1.60;0.90;;;21.60;55.40;;;;;;5071519;28;20433;-70
2022/03/19 11:44:18;;;;;;;1.17;0.60;;;21.60;52.00;;;;;;5066474;28;20605;-72
2022/03/19 11:46:59;;;;;;;1.03;0.50;;;22.00;50.60;;;;;;5065849;28;20475;-71
2022/03/19 11:49:49;;;;;;;1.90;0.57;;;22.50;50.10;;;;;;5069380;28;20417;-72
2022/03/19 11:52:59;;;;;;;0.83;0.60;;;23.30;49.50;;;;;;5073114;28;20505;-71
2022/03/19 11:55:29;;;;;;;2.37;0.60;;;24.30;48.90;;;;;;5066752;28;20494;-71
2022/03/19 11:57:59;;;;;;;1.27;0.60;;;25.00;47.10;;;;;;5065525;28;21164;-71
2022/03/19 12:00:27;;;;;;;10.27;7.90;;;25.80;45.70;;;;;;5065436;28;20442;-71
2022/03/19 12:03:09;;;;;;;16.83;15.85;;;26.10;45.30;;;;;;5063156;28;20576;-71
2022/03/19 12:05:36;;;;;;;;;;;26.70;43.60;;;;;;5058491;28;20551;-71
2022/03/19 12:08:10;;;;;;;0.80;0.63;;;27.50;41.80;;;;;;5055802;28;21130;-70
2022/03/19 12:10:54;;;;;;;1.07;0.60;;;28.20;41.40;;;;;;5057674;28;20358;-71
2022/03/19 12:13:47;;;;;;;2.17;0.53;;;28.00;38.90;;;;;;5056535;28;20473;-73
2022/03/19 12:16:34;;;;;;;0.70;0.60;;;28.20;40.50;;;;;;5055338;28;20450;-70
2022/03/19 12:19:01;;;;;;;0.50;0.30;;;27.90;38.00;;;;;;5057205;28;20272;-70
2022/03/19 12:21:27;;;;;;;0.90;0.40;;;28.60;38.80;;;;;;5057030;28;20435;-72
2022/03/19 12:24:23;;;;;;;1.00;0.40;;;29.70;38.00;;;;;;5056547;28;20464;-71
2022/03/19 12:26:50;;;;;;;1.67;0.50;;;30.20;36.50;;;;;;5055836;28;20454;-71
2022/03/19 12:29:19;;;;;;;0.97;0.40;;;29.60;34.80;;;;;;5056761;28;20482;-72
2022/03/19 12:31:47;;;;;;;0.87;0.60;;;29.40;33.90;;;;;;5056485;28;20426;-72
2022/03/19 12:34:16;;;;;;;1.27;0.47;;;30.10;33.90;;;;;;5054307;28;20908;-71
2022/03/19 12:36:42;;;;;;;0.60;0.50;;;30.70;35.90;;;;;;5055206;28;20986;-68
2022/03/19 12:39:11;;;;;;;0.87;0.47;;;30.60;33.10;;;;;;5056390;28;20433;-69
2022/03/19 12:41:37;;;;;;;0.83;0.57;;;31.20;33.40;;;;;;5055651;28;20443;-68
2022/03/19 12:44:06;;;;;;;0.60;0.40;;;31.10;32.70;;;;;;5054337;28;20523;-67
2022/03/19 12:46:35;;;;;;;0.80;0.40;;;31.40;33.40;;;;;;5055758;28;20574;-69
2022/03/19 12:49:05;;;;;;;0.60;0.50;;;31.10;30.90;;;;;;5055529;28;20497;-67
2022/03/19 12:51:32;;;;;;;1.30;0.70;;;30.40;31.20;;;;;;5054797;28;20451;-65
2022/03/19 12:53:59;;;;;;;0.60;0.40;;;29.30;30.80;;;;;;5054250;28;20443;-68
2022/03/19 12:56:29;;;;;;;1.07;0.67;;;30.00;31.80;;;;;;5057160;28;20485;-69
2022/03/19 12:58:58;;;;;;;0.60;0.50;;;30.10;30.50;;;;;;5054793;28;20462;-65
2022/03/19 13:01:26;;;;;;;0.80;0.53;;;30.50;32.10;;;;;;5054202;28;20435;-69
2022/03/19 13:03:54;;;;;;;1.60;0.50;;;30.60;32.10;;;;;;5054415;28;20454;-68
2022/03/19 13:06:28;;;;;;;0.70;0.40;;;31.40;31.40;;;;;;5054362;28;21063;-71
2022/03/19 13:08:55;;;;;;;0.80;0.70;;;31.70;30.90;;;;;;5057479;28;20463;-66
2022/03/19 13:11:21;;;;;;;1.53;0.50;;;31.70;30.50;;;;;;5057146;28;20467;-67
2022/03/19 13:13:50;;;;;;;0.60;0.40;;;31.10;29.80;;;;;;5060843;28;20485;-68
2022/03/19 13:16:30;;;;;;;0.83;0.40;;;31.10;30.80;;;;;;5058030;28;20542;-68
2022/03/19 13:18:59;;;;;;;1.13;0.60;;;30.60;31.30;;;;;;5073869;28;20446;-68